Sorrento, FL

10:15 AM EST on March 01, 2015 (GMT -0500)
Sorrento - Sorrento Springs | Change Station
CLOSE
Current Station
Personal Weather Station
Location: Sorrento, FL
Elevation: 72 ft
Nearby Weather Stations

Elev 72 ft 28.84 °N, 81.56 °W | Updated 5 seconds ago

Overcast
Overcast
67.1 °F
Feels Like 67.1 °F
N
1.1
Wind Variable Wind from North
Gusts 1.1 mph

Today
High -- | Low -- °F
--% Chance of Precip.
Yesterday
High -- | Low -- °F
Precip. -- in
6:51 AM 6:25 PM
Waxing Gibbous, 85% visible
Pressure 30.40 in
Visibility 10.0 miles
Clouds Scattered Clouds 600 ft
Scattered Clouds 1200 ft
Mostly Cloudy 2700 ft
Dew Point 58 °F
Humidity 74%
Rainfall 0.00 in
Snow Depth Not available.
UV 3 out of 12
Pollen 9.20 out of 12
Air Quality Not available.
Flu Activity Not available.
SPECI KLEE 011459Z 06009KT 10SM SCT006 SCT012 BKN027 19/17 A3040 RMK AO2 T01890172 $

More Conditions Fewer Conditions

Pressure 30.40 in
Visibility 10.0 miles
Clouds Scattered Clouds 600 ft
Scattered Clouds 1200 ft
Mostly Cloudy 2700 ft
Dew Point 58 °F
Humidity 74%
Rainfall 0.00 in
Snow Depth Not available.
UV 3 out of 12
Pollen 9.20 out of 12
Air Quality Not available.
Flu Activity Not available.
SPECI KLEE 011459Z 06009KT 10SM SCT006 SCT012 BKN027 19/17 A3040 RMK AO2 T01890172 $

More Conditions Fewer Conditions

Nowcast | as of 9:26 am EST on March 1, 2015

Partly sunny skies exist over Okeechobee County and the Treasure Coast this morning with cloudy to mostly cloudy conditions expected to persist farther north at least through noon. Isolated to scattered showers over the coastal waters will continue to move onshore...producing light rainfall amounts mainly along the coast. It will be warmer today with highs this afternoon ranging from the mid 70s along the Volusia County coast to the upper 70s and low 80s farther south and inland. Additional details...including graphics are available online at: http://www.Srh.NOAA.Gov/mlb/blog.Php

×

10-Day Weather Forecast

Almanac

Astronomy

Mar. 01, 2015 Rise Set
Actual Time
Civil Twilight
Nautical Twilight
Astronomical Twilight
Moon
Length of Visible Light
Length of Day
Tomorrow will be .
, % of the Moon is Illuminated

Today's Extremes

State Highs State Lows

Community

WunderPhotos

Upload Photos

1,801,410 photos uploaded!

WunderBlogs® & News

Nearby

Air Quality

  Air Quality AQ Index Pollutant
Not available.

Snow Depth

Station Depth Elevation

Earthquake Activity

City Distance Mag. Time & Date
Minimum magnitude displayed is 2.5.

Coastal Water Temperatures

Place Temperature

Nearby Weather Stations